sensor_id;sensor_type;location;lat;lon;timestamp;P1;durP1;ratioP1;P2;durP2;ratioP2
38455;SDS011;24237;50.106;20.014;2023-12-14T00:01:28;221.85;;;36.00;;
38455;SDS011;24237;50.106;20.014;2023-12-14T00:03:53;287.52;;;37.13;;
38455;SDS011;24237;50.106;20.014;2023-12-14T00:06:19;183.15;;;33.58;;
38455;SDS011;24237;50.106;20.014;2023-12-14T00:08:45;201.52;;;33.65;;
38455;SDS011;24237;50.106;20.014;2023-12-14T00:11:11;244.55;;;32.63;;
38455;SDS011;24237;50.106;20.014;2023-12-14T00:13:36;257.00;;;32.83;;
38455;SDS011;24237;50.106;20.014;2023-12-14T00:16:03;204.90;;;29.15;;
38455;SDS011;24237;50.106;20.014;2023-12-14T00:18:29;228.15;;;31.77;;
38455;SDS011;24237;50.106;20.014;2023-12-14T00:20:55;116.60;;;31.55;;
38455;SDS011;24237;50.106;20.014;2023-12-14T00:23:21;241.10;;;34.22;;
38455;SDS011;24237;50.106;20.014;2023-12-14T00:25:47;146.65;;;33.28;;
38455;SDS011;24237;50.106;20.014;2023-12-14T00:28:13;124.78;;;30.02;;
38455;SDS011;24237;50.106;20.014;2023-12-14T00:30:39;127.10;;;29.92;;
38455;SDS011;24237;50.106;20.014;2023-12-14T00:33:04;112.80;;;31.52;;
38455;SDS011;24237;50.106;20.014;2023-12-14T00:35:30;275.92;;;32.13;;
38455;SDS011;24237;50.106;20.014;2023-12-14T00:37:56;130.82;;;30.80;;
38455;SDS011;24237;50.106;20.014;2023-12-14T00:40:22;174.18;;;29.90;;
38455;SDS011;24237;50.106;20.014;2023-12-14T00:42:48;166.80;;;29.75;;
38455;SDS011;24237;50.106;20.014;2023-12-14T00:45:15;135.65;;;30.50;;
38455;SDS011;24237;50.106;20.014;2023-12-14T00:47:40;97.78;;;29.45;;
38455;SDS011;24237;50.106;20.014;2023-12-14T00:50:06;212.45;;;31.98;;
38455;SDS011;24237;50.106;20.014;2023-12-14T00:52:32;161.60;;;31.77;;
38455;SDS011;24237;50.106;20.014;2023-12-14T00:54:58;158.85;;;31.60;;
38455;SDS011;24237;50.106;20.014;2023-12-14T00:57:24;110.00;;;28.23;;
38455;SDS011;24237;50.106;20.014;2023-12-14T00:59:49;98.65;;;28.63;;
38455;SDS011;24237;50.106;20.014;2023-12-14T01:02:15;83.13;;;27.98;;
38455;SDS011;24237;50.106;20.014;2023-12-14T01:04:41;96.25;;;30.90;;
38455;SDS011;24237;50.106;20.014;2023-12-14T01:07:07;88.93;;;29.23;;
38455;SDS011;24237;50.106;20.014;2023-12-14T01:09:33;115.22;;;29.48;;
38455;SDS011;24237;50.106;20.014;2023-12-14T01:11:59;107.50;;;30.77;;
38455;SDS011;24237;50.106;20.014;2023-12-14T01:14:24;95.75;;;29.92;;
38455;SDS011;24237;50.106;20.014;2023-12-14T01:16:50;105.30;;;30.20;;
38455;SDS011;24237;50.106;20.014;2023-12-14T01:19:16;131.75;;;31.23;;
38455;SDS011;24237;50.106;20.014;2023-12-14T01:21:42;105.40;;;28.88;;
38455;SDS011;24237;50.106;20.014;2023-12-14T01:24:08;90.88;;;29.45;;
38455;SDS011;24237;50.106;20.014;2023-12-14T01:26:33;131.50;;;31.75;;
38455;SDS011;24237;50.106;20.014;2023-12-14T01:28:59;106.72;;;31.85;;
38455;SDS011;24237;50.106;20.014;2023-12-14T01:31:25;106.10;;;30.90;;
38455;SDS011;24237;50.106;20.014;2023-12-14T01:33:51;143.60;;;33.92;;
38455;SDS011;24237;50.106;20.014;2023-12-14T01:36:23;135.75;;;33.67;;
38455;SDS011;24237;50.106;20.014;2023-12-14T01:38:50;229.75;;;36.42;;
38455;SDS011;24237;50.106;20.014;2023-12-14T01:41:16;156.23;;;33.80;;
38455;SDS011;24237;50.106;20.014;2023-12-14T01:43:42;177.77;;;33.78;;
38455;SDS011;24237;50.106;20.014;2023-12-14T01:46:08;254.15;;;35.53;;
38455;SDS011;24237;50.106;20.014;2023-12-14T01:48:34;356.02;;;35.90;;
38455;SDS011;24237;50.106;20.014;2023-12-14T01:51:00;139.77;;;29.95;;
38455;SDS011;24237;50.106;20.014;2023-12-14T01:53:25;313.67;;;32.85;;
38455;SDS011;24237;50.106;20.014;2023-12-14T01:55:51;158.73;;;30.95;;
38455;SDS011;24237;50.106;20.014;2023-12-14T01:58:17;194.82;;;32.17;;
38455;SDS011;24237;50.106;20.014;2023-12-14T02:00:49;242.40;;;31.50;;
38455;SDS011;24237;50.106;20.014;2023-12-14T02:03:22;136.35;;;28.80;;
38455;SDS011;24237;50.106;20.014;2023-12-14T02:05:48;303.77;;;34.38;;
38455;SDS011;24237;50.106;20.014;2023-12-14T02:08:13;137.30;;;31.15;;
38455;SDS011;24237;50.106;20.014;2023-12-14T02:10:39;117.80;;;28.70;;
38455;SDS011;24237;50.106;20.014;2023-12-14T02:13:05;112.40;;;29.00;;
38455;SDS011;24237;50.106;20.014;2023-12-14T02:15:30;102.53;;;27.48;;
38455;SDS011;24237;50.106;20.014;2023-12-14T02:17:56;96.72;;;27.90;;
38455;SDS011;24237;50.106;20.014;2023-12-14T02:20:22;113.90;;;27.67;;
38455;SDS011;24237;50.106;20.014;2023-12-14T02:22:48;99.88;;;27.10;;
38455;SDS011;24237;50.106;20.014;2023-12-14T02:25:17;117.70;;;25.17;;
38455;SDS011;24237;50.106;20.014;2023-12-14T02:27:43;122.53;;;27.92;;
38455;SDS011;24237;50.106;20.014;2023-12-14T02:30:09;149.98;;;28.52;;
38455;SDS011;24237;50.106;20.014;2023-12-14T02:32:36;142.52;;;27.33;;
38455;SDS011;24237;50.106;20.014;2023-12-14T02:35:03;96.10;;;25.40;;
38455;SDS011;24237;50.106;20.014;2023-12-14T02:37:29;115.47;;;28.45;;
38455;SDS011;24237;50.106;20.014;2023-12-14T02:39:55;135.13;;;27.38;;
38455;SDS011;24237;50.106;20.014;2023-12-14T02:42:21;81.90;;;24.75;;
38455;SDS011;24237;50.106;20.014;2023-12-14T02:44:46;88.22;;;27.33;;
38455;SDS011;24237;50.106;20.014;2023-12-14T02:47:12;74.32;;;27.23;;
38455;SDS011;24237;50.106;20.014;2023-12-14T02:49:38;90.03;;;26.40;;
38455;SDS011;24237;50.106;20.014;2023-12-14T02:52:03;123.95;;;27.60;;
38455;SDS011;24237;50.106;20.014;2023-12-14T02:54:29;70.20;;;24.38;;
38455;SDS011;24237;50.106;20.014;2023-12-14T02:56:55;74.28;;;25.33;;
38455;SDS011;24237;50.106;20.014;2023-12-14T02:59:21;65.15;;;23.25;;
38455;SDS011;24237;50.106;20.014;2023-12-14T03:01:46;76.57;;;24.00;;
38455;SDS011;24237;50.106;20.014;2023-12-14T03:04:12;72.90;;;24.38;;
38455;SDS011;24237;50.106;20.014;2023-12-14T03:06:38;67.43;;;25.00;;
38455;SDS011;24237;50.106;20.014;2023-12-14T03:09:03;68.90;;;22.58;;
38455;SDS011;24237;50.106;20.014;2023-12-14T03:11:29;71.93;;;26.10;;
38455;SDS011;24237;50.106;20.014;2023-12-14T03:13:55;73.60;;;25.15;;
38455;SDS011;24237;50.106;20.014;2023-12-14T03:16:21;82.63;;;25.63;;
38455;SDS011;24237;50.106;20.014;2023-12-14T03:18:47;75.47;;;24.88;;
38455;SDS011;24237;50.106;20.014;2023-12-14T03:21:17;59.60;;;23.40;;
38455;SDS011;24237;50.106;20.014;2023-12-14T03:23:43;60.13;;;21.88;;
38455;SDS011;24237;50.106;20.014;2023-12-14T03:26:09;49.53;;;20.83;;
38455;SDS011;24237;50.106;20.014;2023-12-14T03:28:34;49.55;;;20.50;;
38455;SDS011;24237;50.106;20.014;2023-12-14T03:31:00;48.25;;;19.10;;
38455;SDS011;24237;50.106;20.014;2023-12-14T03:33:26;40.88;;;17.70;;
38455;SDS011;24237;50.106;20.014;2023-12-14T03:35:52;47.60;;;18.98;;
38455;SDS011;24237;50.106;20.014;2023-12-14T03:38:17;46.42;;;19.92;;
38455;SDS011;24237;50.106;20.014;2023-12-14T03:40:44;54.03;;;20.88;;
38455;SDS011;24237;50.106;20.014;2023-12-14T03:43:10;51.88;;;20.60;;
38455;SDS011;24237;50.106;20.014;2023-12-14T03:45:35;50.80;;;20.25;;
38455;SDS011;24237;50.106;20.014;2023-12-14T03:48:01;50.25;;;19.77;;
38455;SDS011;24237;50.106;20.014;2023-12-14T03:50:27;59.58;;;21.67;;
38455;SDS011;24237;50.106;20.014;2023-12-14T03:52:54;51.78;;;20.17;;
38455;SDS011;24237;50.106;20.014;2023-12-14T03:55:20;60.30;;;20.77;;
38455;SDS011;24237;50.106;20.014;2023-12-14T03:57:45;50.50;;;20.00;;
38455;SDS011;24237;50.106;20.014;2023-12-14T04:00:12;52.53;;;22.58;;
38455;SDS011;24237;50.106;20.014;2023-12-14T04:02:40;53.53;;;22.67;;
38455;SDS011;24237;50.106;20.014;2023-12-14T04:05:06;60.60;;;23.05;;
38455;SDS011;24237;50.106;20.014;2023-12-14T04:07:36;68.53;;;22.08;;
38455;SDS011;24237;50.106;20.014;2023-12-14T04:10:04;57.38;;;24.25;;
38455;SDS011;24237;50.106;20.014;2023-12-14T04:12:30;60.88;;;22.45;;
38455;SDS011;24237;50.106;20.014;2023-12-14T04:14:56;66.38;;;23.38;;
38455;SDS011;24237;50.106;20.014;2023-12-14T04:17:22;58.03;;;22.27;;
38455;SDS011;24237;50.106;20.014;2023-12-14T04:19:48;55.50;;;21.75;;
38455;SDS011;24237;50.106;20.014;2023-12-14T04:22:13;63.25;;;22.08;;
38455;SDS011;24237;50.106;20.014;2023-12-14T04:24:39;51.83;;;21.55;;
38455;SDS011;24237;50.106;20.014;2023-12-14T04:27:05;70.43;;;22.00;;
38455;SDS011;24237;50.106;20.014;2023-12-14T04:29:30;135.95;;;24.10;;
38455;SDS011;24237;50.106;20.014;2023-12-14T04:31:56;159.65;;;24.80;;
38455;SDS011;24237;50.106;20.014;2023-12-14T04:34:22;219.50;;;27.05;;
38455;SDS011;24237;50.106;20.014;2023-12-14T04:36:48;158.20;;;24.40;;
38455;SDS011;24237;50.106;20.014;2023-12-14T04:39:13;133.35;;;24.77;;
38455;SDS011;24237;50.106;20.014;2023-12-14T04:41:49;167.23;;;23.25;;
38455;SDS011;24237;50.106;20.014;2023-12-14T04:44:15;86.43;;;23.25;;
38455;SDS011;24237;50.106;20.014;2023-12-14T04:46:41;113.45;;;25.13;;
38455;SDS011;24237;50.106;20.014;2023-12-14T04:49:07;116.22;;;24.02;;
38455;SDS011;24237;50.106;20.014;2023-12-14T04:51:33;155.27;;;25.38;;
38455;SDS011;24237;50.106;20.014;2023-12-14T04:53:59;121.00;;;24.17;;
38455;SDS011;24237;50.106;20.014;2023-12-14T04:56:24;62.85;;;21.45;;
38455;SDS011;24237;50.106;20.014;2023-12-14T04:58:50;81.97;;;21.80;;
38455;SDS011;24237;50.106;20.014;2023-12-14T05:01:16;133.73;;;24.27;;
38455;SDS011;24237;50.106;20.014;2023-12-14T05:03:41;312.73;;;27.45;;
38455;SDS011;24237;50.106;20.014;2023-12-14T05:06:07;90.93;;;23.98;;
38455;SDS011;24237;50.106;20.014;2023-12-14T05:08:33;74.22;;;24.73;;
38455;SDS011;24237;50.106;20.014;2023-12-14T05:10:59;58.83;;;22.27;;
38455;SDS011;24237;50.106;20.014;2023-12-14T05:13:25;49.47;;;20.73;;
38455;SDS011;24237;50.106;20.014;2023-12-14T05:15:51;44.85;;;19.67;;
38455;SDS011;24237;50.106;20.014;2023-12-14T05:18:17;44.47;;;17.80;;
38455;SDS011;24237;50.106;20.014;2023-12-14T05:20:43;56.60;;;21.67;;
38455;SDS011;24237;50.106;20.014;2023-12-14T05:23:10;45.00;;;20.38;;
38455;SDS011;24237;50.106;20.014;2023-12-14T05:25:37;51.35;;;20.58;;
38455;SDS011;24237;50.106;20.014;2023-12-14T05:28:03;49.85;;;20.45;;
38455;SDS011;24237;50.106;20.014;2023-12-14T05:30:29;51.42;;;21.08;;
38455;SDS011;24237;50.106;20.014;2023-12-14T05:32:55;48.95;;;19.20;;
38455;SDS011;24237;50.106;20.014;2023-12-14T05:35:21;38.08;;;16.80;;
38455;SDS011;24237;50.106;20.014;2023-12-14T05:37:47;43.85;;;17.23;;
38455;SDS011;24237;50.106;20.014;2023-12-14T05:40:13;46.45;;;19.38;;
38455;SDS011;24237;50.106;20.014;2023-12-14T05:42:38;47.25;;;18.92;;
38455;SDS011;24237;50.106;20.014;2023-12-14T05:45:05;40.20;;;18.15;;
38455;SDS011;24237;50.106;20.014;2023-12-14T05:47:31;53.83;;;20.10;;
38455;SDS011;24237;50.106;20.014;2023-12-14T05:49:59;54.60;;;21.05;;
38455;SDS011;24237;50.106;20.014;2023-12-14T05:52:25;48.63;;;20.25;;
38455;SDS011;24237;50.106;20.014;2023-12-14T05:54:50;54.67;;;22.52;;
38455;SDS011;24237;50.106;20.014;2023-12-14T05:57:16;54.75;;;21.90;;
38455;SDS011;24237;50.106;20.014;2023-12-14T05:59:42;59.13;;;23.95;;
38455;SDS011;24237;50.106;20.014;2023-12-14T06:02:08;56.42;;;23.98;;
38455;SDS011;24237;50.106;20.014;2023-12-14T06:04:34;59.42;;;24.42;;
38455;SDS011;24237;50.106;20.014;2023-12-14T06:07:00;56.67;;;24.30;;
38455;SDS011;24237;50.106;20.014;2023-12-14T06:09:26;62.72;;;23.20;;
38455;SDS011;24237;50.106;20.014;2023-12-14T06:11:59;56.13;;;23.00;;
38455;SDS011;24237;50.106;20.014;2023-12-14T06:16:52;51.17;;;20.77;;
38455;SDS011;24237;50.106;20.014;2023-12-14T06:19:17;53.60;;;21.95;;
38455;SDS011;24237;50.106;20.014;2023-12-14T06:21:43;54.10;;;22.85;;
38455;SDS011;24237;50.106;20.014;2023-12-14T06:24:09;56.22;;;21.83;;
38455;SDS011;24237;50.106;20.014;2023-12-14T06:26:34;53.95;;;23.95;;
38455;SDS011;24237;50.106;20.014;2023-12-14T06:29:05;57.47;;;25.02;;
38455;SDS011;24237;50.106;20.014;2023-12-14T06:31:30;59.53;;;24.20;;
38455;SDS011;24237;50.106;20.014;2023-12-14T06:33:56;64.40;;;26.30;;
38455;SDS011;24237;50.106;20.014;2023-12-14T06:36:22;70.93;;;28.98;;
38455;SDS011;24237;50.106;20.014;2023-12-14T06:38:52;62.28;;;26.30;;
38455;SDS011;24237;50.106;20.014;2023-12-14T06:41:18;60.17;;;25.27;;
38455;SDS011;24237;50.106;20.014;2023-12-14T06:43:47;61.88;;;24.73;;
38455;SDS011;24237;50.106;20.014;2023-12-14T06:46:13;58.38;;;25.35;;
38455;SDS011;24237;50.106;20.014;2023-12-14T06:48:40;68.88;;;27.55;;
38455;SDS011;24237;50.106;20.014;2023-12-14T06:51:07;63.20;;;27.73;;
38455;SDS011;24237;50.106;20.014;2023-12-14T06:53:34;71.22;;;28.20;;
38455;SDS011;24237;50.106;20.014;2023-12-14T06:56:00;67.03;;;29.33;;
38455;SDS011;24237;50.106;20.014;2023-12-14T06:58:26;65.25;;;27.85;;
38455;SDS011;24237;50.106;20.014;2023-12-14T07:00:52;67.70;;;27.63;;
38455;SDS011;24237;50.106;20.014;2023-12-14T07:03:18;68.80;;;26.50;;
38455;SDS011;24237;50.106;20.014;2023-12-14T07:05:44;55.30;;;25.55;;
38455;SDS011;24237;50.106;20.014;2023-12-14T07:08:09;66.63;;;26.55;;
38455;SDS011;24237;50.106;20.014;2023-12-14T07:10:35;66.07;;;26.17;;
38455;SDS011;24237;50.106;20.014;2023-12-14T07:13:01;57.65;;;26.67;;
38455;SDS011;24237;50.106;20.014;2023-12-14T07:15:27;59.95;;;25.83;;
38455;SDS011;24237;50.106;20.014;2023-12-14T07:17:52;60.67;;;26.92;;
38455;SDS011;24237;50.106;20.014;2023-12-14T07:20:18;71.10;;;28.42;;
38455;SDS011;24237;50.106;20.014;2023-12-14T07:22:44;62.03;;;27.25;;
38455;SDS011;24237;50.106;20.014;2023-12-14T07:25:09;67.55;;;28.67;;
38455;SDS011;24237;50.106;20.014;2023-12-14T07:27:35;65.43;;;29.48;;
38455;SDS011;24237;50.106;20.014;2023-12-14T07:30:01;71.03;;;29.15;;
38455;SDS011;24237;50.106;20.014;2023-12-14T07:32:27;65.32;;;27.08;;
38455;SDS011;24237;50.106;20.014;2023-12-14T07:34:52;66.07;;;25.27;;
38455;SDS011;24237;50.106;20.014;2023-12-14T07:37:18;67.43;;;28.30;;
38455;SDS011;24237;50.106;20.014;2023-12-14T07:39:44;70.50;;;27.48;;
38455;SDS011;24237;50.106;20.014;2023-12-14T07:42:10;64.68;;;27.63;;
38455;SDS011;24237;50.106;20.014;2023-12-14T07:44:35;56.38;;;24.40;;
38455;SDS011;24237;50.106;20.014;2023-12-14T07:47:02;65.55;;;26.85;;
38455;SDS011;24237;50.106;20.014;2023-12-14T07:49:28;58.65;;;25.45;;
38455;SDS011;24237;50.106;20.014;2023-12-14T07:51:54;58.30;;;25.85;;
38455;SDS011;24237;50.106;20.014;2023-12-14T07:54:19;62.03;;;25.60;;
38455;SDS011;24237;50.106;20.014;2023-12-14T07:56:45;62.83;;;24.52;;
38455;SDS011;24237;50.106;20.014;2023-12-14T07:59:11;62.25;;;25.52;;
38455;SDS011;24237;50.106;20.014;2023-12-14T08:01:38;55.88;;;25.95;;
38455;SDS011;24237;50.106;20.014;2023-12-14T08:04:04;51.35;;;23.38;;
38455;SDS011;24237;50.106;20.014;2023-12-14T08:06:29;61.58;;;25.13;;
38455;SDS011;24237;50.106;20.014;2023-12-14T08:08:55;57.40;;;24.88;;
38455;SDS011;24237;50.106;20.014;2023-12-14T08:11:25;53.70;;;24.25;;
38455;SDS011;24237;50.106;20.014;2023-12-14T08:13:50;58.35;;;25.42;;
38455;SDS011;24237;50.106;20.014;2023-12-14T08:16:16;56.92;;;25.63;;
38455;SDS011;24237;50.106;20.014;2023-12-14T08:18:44;62.33;;;26.05;;
38455;SDS011;24237;50.106;20.014;2023-12-14T08:23:37;54.80;;;23.73;;
38455;SDS011;24237;50.106;20.014;2023-12-14T08:26:03;61.47;;;26.83;;
38455;SDS011;24237;50.106;20.014;2023-12-14T08:28:29;64.45;;;27.83;;
38455;SDS011;24237;50.106;20.014;2023-12-14T08:30:55;61.47;;;26.50;;
38455;SDS011;24237;50.106;20.014;2023-12-14T08:33:24;60.47;;;26.20;;
38455;SDS011;24237;50.106;20.014;2023-12-14T08:35:50;60.25;;;26.25;;
38455;SDS011;24237;50.106;20.014;2023-12-14T08:38:15;61.53;;;27.67;;
38455;SDS011;24237;50.106;20.014;2023-12-14T08:40:41;58.55;;;26.95;;
38455;SDS011;24237;50.106;20.014;2023-12-14T08:43:07;65.60;;;29.02;;
38455;SDS011;24237;50.106;20.014;2023-12-14T08:45:33;66.22;;;28.08;;
38455;SDS011;24237;50.106;20.014;2023-12-14T08:47:58;63.22;;;27.13;;
38455;SDS011;24237;50.106;20.014;2023-12-14T08:50:24;63.50;;;28.42;;
38455;SDS011;24237;50.106;20.014;2023-12-14T08:52:53;67.93;;;28.52;;
38455;SDS011;24237;50.106;20.014;2023-12-14T08:55:19;65.20;;;27.13;;
38455;SDS011;24237;50.106;20.014;2023-12-14T08:57:44;58.38;;;25.02;;
38455;SDS011;24237;50.106;20.014;2023-12-14T09:00:10;60.47;;;26.35;;
38455;SDS011;24237;50.106;20.014;2023-12-14T09:02:37;63.53;;;25.97;;
38455;SDS011;24237;50.106;20.014;2023-12-14T09:05:02;64.80;;;26.48;;
38455;SDS011;24237;50.106;20.014;2023-12-14T09:07:29;59.13;;;25.42;;
38455;SDS011;24237;50.106;20.014;2023-12-14T09:09:55;56.78;;;24.05;;
38455;SDS011;24237;50.106;20.014;2023-12-14T09:12:21;58.97;;;26.52;;
38455;SDS011;24237;50.106;20.014;2023-12-14T09:14:47;64.15;;;27.23;;
38455;SDS011;24237;50.106;20.014;2023-12-14T09:17:13;66.80;;;27.70;;
38455;SDS011;24237;50.106;20.014;2023-12-14T09:19:39;64.53;;;26.40;;
38455;SDS011;24237;50.106;20.014;2023-12-14T09:22:04;68.22;;;27.77;;
38455;SDS011;24237;50.106;20.014;2023-12-14T09:24:50;61.28;;;25.65;;
38455;SDS011;24237;50.106;20.014;2023-12-14T09:27:36;72.00;;;27.65;;
38455;SDS011;24237;50.106;20.014;2023-12-14T09:30:02;63.42;;;25.67;;
38455;SDS011;24237;50.106;20.014;2023-12-14T09:32:28;63.00;;;25.88;;
38455;SDS011;24237;50.106;20.014;2023-12-14T09:34:54;61.38;;;26.00;;
38455;SDS011;24237;50.106;20.014;2023-12-14T09:39:47;58.05;;;24.23;;
38455;SDS011;24237;50.106;20.014;2023-12-14T09:42:13;63.50;;;26.08;;
38455;SDS011;24237;50.106;20.014;2023-12-14T09:44:48;67.47;;;27.67;;
38455;SDS011;24237;50.106;20.014;2023-12-14T09:47:14;62.80;;;27.98;;
38455;SDS011;24237;50.106;20.014;2023-12-14T09:49:41;59.78;;;26.00;;
38455;SDS011;24237;50.106;20.014;2023-12-14T09:52:09;65.80;;;26.77;;
38455;SDS011;24237;50.106;20.014;2023-12-14T09:54:35;64.97;;;28.25;;
38455;SDS011;24237;50.106;20.014;2023-12-14T09:57:00;68.93;;;27.10;;
38455;SDS011;24237;50.106;20.014;2023-12-14T09:59:26;56.30;;;23.58;;
38455;SDS011;24237;50.106;20.014;2023-12-14T10:01:52;56.63;;;24.65;;
38455;SDS011;24237;50.106;20.014;2023-12-14T10:04:18;56.35;;;22.15;;
38455;SDS011;24237;50.106;20.014;2023-12-14T10:06:48;57.28;;;23.48;;
38455;SDS011;24237;50.106;20.014;2023-12-14T10:09:14;53.95;;;24.40;;
38455;SDS011;24237;50.106;20.014;2023-12-14T10:11:43;63.20;;;26.10;;
38455;SDS011;24237;50.106;20.014;2023-12-14T10:14:19;61.42;;;24.20;;
38455;SDS011;24237;50.106;20.014;2023-12-14T10:16:47;65.82;;;26.63;;
38455;SDS011;24237;50.106;20.014;2023-12-14T10:19:14;59.47;;;25.70;;
38455;SDS011;24237;50.106;20.014;2023-12-14T10:21:43;62.90;;;24.63;;
38455;SDS011;24237;50.106;20.014;2023-12-14T10:24:08;58.90;;;24.67;;
38455;SDS011;24237;50.106;20.014;2023-12-14T10:26:34;64.90;;;25.85;;
38455;SDS011;24237;50.106;20.014;2023-12-14T10:29:01;59.88;;;27.17;;
38455;SDS011;24237;50.106;20.014;2023-12-14T10:31:29;61.17;;;27.17;;
38455;SDS011;24237;50.106;20.014;2023-12-14T10:33:56;67.13;;;28.70;;
38455;SDS011;24237;50.106;20.014;2023-12-14T10:36:24;62.72;;;27.23;;
38455;SDS011;24237;50.106;20.014;2023-12-14T10:38:53;64.30;;;26.48;;
38455;SDS011;24237;50.106;20.014;2023-12-14T10:41:22;59.38;;;26.98;;
38455;SDS011;24237;50.106;20.014;2023-12-14T10:43:50;69.85;;;29.65;;
38455;SDS011;24237;50.106;20.014;2023-12-14T10:46:18;61.55;;;27.02;;
38455;SDS011;24237;50.106;20.014;2023-12-14T10:48:45;63.10;;;29.33;;
38455;SDS011;24237;50.106;20.014;2023-12-14T10:53:40;77.20;;;25.42;;
38455;SDS011;24237;50.106;20.014;2023-12-14T10:56:10;67.80;;;27.65;;
38455;SDS011;24237;50.106;20.014;2023-12-14T10:58:53;68.32;;;26.63;;
38455;SDS011;24237;50.106;20.014;2023-12-14T11:01:21;67.82;;;28.33;;
38455;SDS011;24237;50.106;20.014;2023-12-14T11:03:49;63.03;;;27.58;;
38455;SDS011;24237;50.106;20.014;2023-12-14T11:08:53;61.97;;;28.55;;
38455;SDS011;24237;50.106;20.014;2023-12-14T11:11:22;57.22;;;25.98;;
38455;SDS011;24237;50.106;20.014;2023-12-14T11:13:53;59.08;;;25.73;;
38455;SDS011;24237;50.106;20.014;2023-12-14T11:16:24;65.85;;;28.05;;
38455;SDS011;24237;50.106;20.014;2023-12-14T11:24:31;59.78;;;25.70;;
38455;SDS011;24237;50.106;20.014;2023-12-14T11:26:56;62.53;;;27.23;;
38455;SDS011;24237;50.106;20.014;2023-12-14T11:29:22;62.28;;;27.00;;
38455;SDS011;24237;50.106;20.014;2023-12-14T11:31:48;58.65;;;25.67;;
38455;SDS011;24237;50.106;20.014;2023-12-14T11:34:16;60.03;;;24.90;;
38455;SDS011;24237;50.106;20.014;2023-12-14T11:36:42;58.60;;;26.48;;
38455;SDS011;24237;50.106;20.014;2023-12-14T11:39:10;61.70;;;25.85;;
38455;SDS011;24237;50.106;20.014;2023-12-14T11:41:36;65.35;;;26.88;;
38455;SDS011;24237;50.106;20.014;2023-12-14T11:44:03;65.38;;;26.58;;
38455;SDS011;24237;50.106;20.014;2023-12-14T11:46:30;61.00;;;27.42;;
38455;SDS011;24237;50.106;20.014;2023-12-14T11:48:56;66.85;;;26.83;;
38455;SDS011;24237;50.106;20.014;2023-12-14T11:51:23;62.75;;;26.67;;
38455;SDS011;24237;50.106;20.014;2023-12-14T11:53:50;69.30;;;28.48;;
38455;SDS011;24237;50.106;20.014;2023-12-14T11:56:17;62.08;;;27.08;;
38455;SDS011;24237;50.106;20.014;2023-12-14T11:58:43;64.03;;;26.73;;
38455;SDS011;24237;50.106;20.014;2023-12-14T12:01:19;53.53;;;26.15;;
38455;SDS011;24237;50.106;20.014;2023-12-14T12:03:50;52.45;;;24.52;;
38455;SDS011;24237;50.106;20.014;2023-12-14T12:06:22;58.60;;;24.38;;
38455;SDS011;24237;50.106;20.014;2023-12-14T12:08:55;52.72;;;24.20;;
38455;SDS011;24237;50.106;20.014;2023-12-14T12:11:22;57.83;;;24.45;;
38455;SDS011;24237;50.106;20.014;2023-12-14T12:13:53;62.13;;;25.45;;
38455;SDS011;24237;50.106;20.014;2023-12-14T12:16:20;52.08;;;24.50;;
38455;SDS011;24237;50.106;20.014;2023-12-14T12:18:46;64.13;;;25.30;;
38455;SDS011;24237;50.106;20.014;2023-12-14T12:21:12;54.03;;;23.48;;
38455;SDS011;24237;50.106;20.014;2023-12-14T12:23:37;57.03;;;24.65;;
38455;SDS011;24237;50.106;20.014;2023-12-14T12:26:04;54.10;;;23.75;;
38455;SDS011;24237;50.106;20.014;2023-12-14T12:28:30;52.70;;;24.38;;
38455;SDS011;24237;50.106;20.014;2023-12-14T12:30:57;48.85;;;23.80;;
38455;SDS011;24237;50.106;20.014;2023-12-14T12:33:24;53.50;;;23.90;;
38455;SDS011;24237;50.106;20.014;2023-12-14T12:35:51;53.83;;;24.08;;
38455;SDS011;24237;50.106;20.014;2023-12-14T12:38:17;49.50;;;23.02;;
38455;SDS011;24237;50.106;20.014;2023-12-14T12:40:44;55.20;;;24.95;;
38455;SDS011;24237;50.106;20.014;2023-12-14T12:43:10;58.25;;;23.15;;
38455;SDS011;24237;50.106;20.014;2023-12-14T12:45:36;49.67;;;22.20;;
38455;SDS011;24237;50.106;20.014;2023-12-14T12:48:02;47.05;;;22.58;;
38455;SDS011;24237;50.106;20.014;2023-12-14T12:50:29;46.33;;;23.37;;
38455;SDS011;24237;50.106;20.014;2023-12-14T12:52:55;45.42;;;22.02;;
38455;SDS011;24237;50.106;20.014;2023-12-14T12:55:20;52.33;;;22.85;;
38455;SDS011;24237;50.106;20.014;2023-12-14T12:57:47;50.25;;;23.92;;
38455;SDS011;24237;50.106;20.014;2023-12-14T13:00:15;49.40;;;22.95;;
38455;SDS011;24237;50.106;20.014;2023-12-14T13:02:41;45.08;;;21.05;;
38455;SDS011;24237;50.106;20.014;2023-12-14T13:05:09;49.33;;;21.55;;
38455;SDS011;24237;50.106;20.014;2023-12-14T13:07:35;46.05;;;22.33;;
38455;SDS011;24237;50.106;20.014;2023-12-14T13:10:02;43.25;;;20.48;;
38455;SDS011;24237;50.106;20.014;2023-12-14T13:12:29;43.33;;;21.23;;
38455;SDS011;24237;50.106;20.014;2023-12-14T13:14:55;45.63;;;21.70;;
38455;SDS011;24237;50.106;20.014;2023-12-14T13:17:21;41.30;;;21.52;;
38455;SDS011;24237;50.106;20.014;2023-12-14T13:19:47;46.92;;;21.30;;
38455;SDS011;24237;50.106;20.014;2023-12-14T13:22:12;41.35;;;21.67;;
38455;SDS011;24237;50.106;20.014;2023-12-14T13:24:38;45.53;;;21.30;;
38455;SDS011;24237;50.106;20.014;2023-12-14T13:27:04;49.38;;;22.92;;
38455;SDS011;24237;50.106;20.014;2023-12-14T13:29:30;40.70;;;20.92;;
38455;SDS011;24237;50.106;20.014;2023-12-14T13:31:57;44.08;;;21.67;;
38455;SDS011;24237;50.106;20.014;2023-12-14T13:34:24;42.95;;;21.45;;
38455;SDS011;24237;50.106;20.014;2023-12-14T13:36:51;39.00;;;19.38;;
38455;SDS011;24237;50.106;20.014;2023-12-14T13:39:16;58.00;;;21.15;;
38455;SDS011;24237;50.106;20.014;2023-12-14T13:41:42;41.13;;;20.42;;
38455;SDS011;24237;50.106;20.014;2023-12-14T13:44:08;44.25;;;19.80;;
38455;SDS011;24237;50.106;20.014;2023-12-14T13:46:34;63.15;;;28.52;;
38455;SDS011;24237;50.106;20.014;2023-12-14T13:49:00;42.58;;;19.98;;
38455;SDS011;24237;50.106;20.014;2023-12-14T13:51:27;53.15;;;26.38;;
38455;SDS011;24237;50.106;20.014;2023-12-14T13:53:53;43.72;;;20.73;;
38455;SDS011;24237;50.106;20.014;2023-12-14T13:56:19;40.65;;;20.88;;
38455;SDS011;24237;50.106;20.014;2023-12-14T13:58:44;38.97;;;19.27;;
38455;SDS011;24237;50.106;20.014;2023-12-14T14:01:10;48.42;;;20.13;;
38455;SDS011;24237;50.106;20.014;2023-12-14T14:03:36;40.95;;;21.38;;
38455;SDS011;24237;50.106;20.014;2023-12-14T14:06:03;38.40;;;20.70;;
38455;SDS011;24237;50.106;20.014;2023-12-14T14:08:30;47.03;;;23.83;;
38455;SDS011;24237;50.106;20.014;2023-12-14T14:10:57;47.10;;;21.65;;
38455;SDS011;24237;50.106;20.014;2023-12-14T14:13:23;41.57;;;21.33;;
38455;SDS011;24237;50.106;20.014;2023-12-14T14:15:49;41.30;;;21.25;;
38455;SDS011;24237;50.106;20.014;2023-12-14T14:18:16;41.30;;;21.70;;
38455;SDS011;24237;50.106;20.014;2023-12-14T14:20:42;40.00;;;20.67;;